createdAt,value
2018-04-19T00:03:32.368Z,52.03
2018-04-19T00:05:58.664Z,52.35
2018-04-19T00:08:24.943Z,52.68
2018-04-19T00:10:51.179Z,52.38
2018-04-19T00:13:17.452Z,52.48
2018-04-19T00:18:33.484Z,52.39
2018-04-19T00:20:59.719Z,52.42
2018-04-19T00:23:25.951Z,52.53
2018-04-19T00:25:52.215Z,52.37
2018-04-19T00:28:18.443Z,52.06
2018-04-19T00:30:44.676Z,52.21
2018-04-19T00:33:10.936Z,52.38
2018-04-19T00:35:37.167Z,52.48
2018-04-19T00:38:03.455Z,52.25
2018-04-19T00:40:29.692Z,52.13
2018-04-19T00:42:55.934Z,51.98
2018-04-19T00:45:22.215Z,52.57
2018-04-19T00:47:48.452Z,52.60
2018-04-19T00:50:14.715Z,52.65
2018-04-19T00:52:53.308Z,52.61
2018-04-19T00:55:19.571Z,52.70
2018-04-19T00:57:45.811Z,53.02
2018-04-19T01:00:12.048Z,53.26
2018-04-19T01:02:38.342Z,53.19
2018-04-19T01:05:04.600Z,53.25
2018-04-19T01:07:30.875Z,53.41
2018-04-19T01:09:57.115Z,53.32
2018-04-19T01:12:23.391Z,53.07
2018-04-19T01:14:49.624Z,52.93
2018-04-19T01:17:15.863Z,53.07
2018-04-19T01:19:42.155Z,53.15
2018-04-19T01:22:08.386Z,53.03
2018-04-19T01:24:34.655Z,53.11
2018-04-19T01:27:00.915Z,53.30
2018-04-19T01:29:27.148Z,53.44
2018-04-19T01:31:53.410Z,53.84
2018-04-19T01:34:19.647Z,53.73
2018-04-19T01:36:45.916Z,53.85
2018-04-19T01:39:12.146Z,53.96
2018-04-19T01:41:38.404Z,53.98
2018-04-19T01:44:04.670Z,54.03
2018-04-19T01:46:30.909Z,53.92
2018-04-19T01:48:57.170Z,53.72
2018-04-19T01:51:23.443Z,53.70
2018-04-19T01:53:49.693Z,53.95
2018-04-19T01:56:15.957Z,54.11
2018-04-19T01:58:42.212Z,54.01
2018-04-19T02:01:08.467Z,54.04
2018-04-19T02:03:34.731Z,54.19
2018-04-19T02:06:01.072Z,54.28
2018-04-19T02:08:27.315Z,53.89
2018-04-19T02:10:53.575Z,54.19
2018-04-19T02:13:19.807Z,54.32
2018-04-19T02:15:46.039Z,54.33
2018-04-19T02:18:12.331Z,54.21
2018-04-19T02:20:38.566Z,54.45
2018-04-19T02:23:04.827Z,54.38
2018-04-19T02:25:31.072Z,54.31
2018-04-19T02:27:57.343Z,54.20
2018-04-19T02:30:23.611Z,54.13
2018-04-19T02:32:49.906Z,53.90
2018-04-19T02:35:16.167Z,53.40
2018-04-19T02:37:42.443Z,53.38
2018-04-19T02:40:08.699Z,54.16
2018-04-19T02:42:34.967Z,54.15
2018-04-19T02:45:01.210Z,54.05
2018-04-19T02:47:27.493Z,53.99
2018-04-19T02:49:53.731Z,54.05
2018-04-19T02:52:20.004Z,54.25
2018-04-19T02:54:46.247Z,54.55
2018-04-19T02:57:12.508Z,54.73
2018-04-19T02:59:38.782Z,54.37
2018-04-19T03:02:05.028Z,54.60
2018-04-19T03:04:31.319Z,54.84
2018-04-19T03:06:57.557Z,54.87
2018-04-19T03:09:23.831Z,55.01
2018-04-19T03:11:50.095Z,54.87
2018-04-19T03:14:16.368Z,55.21
2018-04-19T03:16:42.610Z,54.99
2018-04-19T03:19:08.891Z,54.59
2018-04-19T03:21:35.135Z,54.91
2018-04-19T03:24:01.404Z,55.16
2018-04-19T03:26:27.692Z,55.55
2018-04-19T03:28:53.980Z,55.48
2018-04-19T03:31:20.256Z,55.37
2018-04-19T03:33:46.503Z,55.32
2018-04-19T03:36:12.770Z,55.17
2018-04-19T03:38:39.015Z,55.05
2018-04-19T03:41:05.286Z,54.31
2018-04-19T03:43:31.523Z,53.67
2018-04-19T03:45:57.795Z,53.20
2018-04-19T03:48:24.083Z,52.75
2018-04-19T03:50:50.351Z,53.26
2018-04-19T03:53:16.659Z,53.72
2018-04-19T03:55:42.958Z,54.24
2018-04-19T03:58:09.202Z,54.31
2018-04-19T04:00:35.479Z,54.10
2018-04-19T04:03:01.725Z,54.06
2018-04-19T04:05:28.035Z,54.56
2018-04-19T04:07:54.276Z,54.53
2018-04-19T04:10:20.506Z,54.27
2018-04-19T04:12:46.782Z,54.28
2018-04-19T04:15:13.019Z,54.31
2018-04-19T04:17:51.583Z,54.45
2018-04-19T04:20:30.199Z,54.65
2018-04-19T04:23:08.739Z,54.70
2018-04-19T04:25:34.976Z,54.63
2018-04-19T04:28:01.275Z,54.64
2018-04-19T04:30:27.538Z,54.69
2018-04-19T04:32:53.811Z,54.27
2018-04-19T04:35:20.138Z,54.02
2018-04-19T04:37:46.399Z,53.80
2018-04-19T04:40:12.640Z,53.70
2018-04-19T04:42:38.883Z,54.15
2018-04-19T04:45:05.164Z,54.27
2018-04-19T04:47:31.415Z,54.13
2018-04-19T04:49:57.688Z,54.46
2018-04-19T04:52:23.982Z,54.19
2018-04-19T04:54:50.255Z,54.26
2018-04-19T04:57:16.490Z,54.41
2018-04-19T04:59:42.807Z,54.39
2018-04-19T05:02:09.082Z,54.26
2018-04-19T05:04:35.350Z,54.50
2018-04-19T05:07:01.631Z,54.48
2018-04-19T05:09:27.934Z,54.84
2018-04-19T05:11:54.219Z,54.55
2018-04-19T05:14:20.491Z,54.69
2018-04-19T05:16:46.735Z,54.72
2018-04-19T05:19:13.011Z,54.61
2018-04-19T05:21:39.279Z,54.84
2018-04-19T05:24:05.561Z,54.44
2018-04-19T05:26:31.811Z,53.62
2018-04-19T05:28:58.047Z,54.46
2018-04-19T05:31:24.323Z,54.52
2018-04-19T05:33:50.579Z,54.30
2018-04-19T05:36:16.851Z,54.19
2018-04-19T05:38:43.086Z,54.20
2018-04-19T05:41:09.315Z,54.03
2018-04-19T05:43:35.578Z,53.90
2018-04-19T05:46:01.835Z,53.39
2018-04-19T05:48:28.147Z,53.10
2018-04-19T05:50:54.402Z,52.19
2018-04-19T05:53:20.663Z,51.83
2018-04-19T05:55:46.904Z,51.03
2018-04-19T05:58:13.174Z,50.99
2018-04-19T06:00:39.442Z,51.28
2018-04-19T06:03:05.707Z,50.50
2018-04-19T06:05:31.952Z,50.04
2018-04-19T06:07:58.219Z,48.72
2018-04-19T06:10:24.447Z,48.63
2018-04-19T06:12:50.702Z,48.45
2018-04-19T06:15:17.068Z,47.99
2018-04-19T06:17:43.271Z,48.47
2018-04-19T06:20:09.631Z,47.37
2018-04-19T06:22:35.907Z,46.16
2018-04-19T06:25:02.195Z,45.66
2018-04-19T06:27:28.443Z,46.55
2018-04-19T06:29:54.746Z,46.06
2018-04-19T06:32:20.996Z,45.42
2018-04-19T06:34:47.243Z,45.50
2018-04-19T06:37:13.530Z,44.16
2018-04-19T06:39:39.800Z,44.78
2018-04-19T06:42:06.067Z,44.20
2018-04-19T06:44:32.403Z,44.16
2018-04-19T06:46:58.695Z,43.86
2018-04-19T06:49:24.937Z,44.24
2018-04-19T06:51:51.211Z,43.16
2018-04-19T06:54:17.459Z,42.19
2018-04-19T06:56:43.699Z,42.28
2018-04-19T06:59:09.991Z,41.29
2018-04-19T07:01:36.242Z,40.61
2018-04-19T07:04:02.539Z,39.55
2018-04-19T07:06:28.779Z,39.28
2018-04-19T07:08:55.050Z,38.57
2018-04-19T07:11:22.175Z,39.71
2018-04-19T07:13:48.439Z,39.11
2018-04-19T07:16:14.797Z,37.70
2018-04-19T07:18:41.047Z,36.99
2018-04-19T07:21:07.419Z,37.70
2018-04-19T07:23:33.663Z,37.56
2018-04-19T07:25:59.948Z,36.39
2018-04-19T07:28:26.195Z,35.90
2018-04-19T07:30:52.469Z,35.13
2018-04-19T07:33:18.739Z,33.35
2018-04-19T07:35:44.983Z,33.35
2018-04-19T07:38:11.251Z,33.22
2018-04-19T07:40:37.496Z,32.64
2018-04-19T07:43:03.813Z,32.70
2018-04-19T07:45:30.063Z,31.36
2018-04-19T07:47:56.335Z,31.94
2018-04-19T07:50:22.634Z,31.65
2018-04-19T07:52:48.896Z,31.40
2018-04-19T07:55:15.135Z,30.94
2018-04-19T07:57:41.414Z,29.75
2018-04-19T08:00:07.683Z,30.47
2018-04-19T08:02:33.958Z,29.28
2018-04-19T08:05:00.234Z,28.63
2018-04-19T08:07:26.479Z,27.58
2018-04-19T08:09:52.742Z,27.89
2018-04-19T08:12:19.128Z,27.39
2018-04-19T08:14:45.407Z,26.53
2018-04-19T08:17:11.655Z,26.22
2018-04-19T08:19:37.899Z,25.22
2018-04-19T08:22:04.179Z,24.49
2018-04-19T08:24:30.434Z,23.90
2018-04-19T08:26:56.711Z,22.53
2018-04-19T08:29:22.972Z,21.83
2018-04-19T08:34:22.175Z,21.61
2018-04-19T08:36:48.447Z,20.92
2018-04-19T08:39:14.715Z,20.80
2018-04-19T08:41:41.031Z,21.04
2018-04-19T08:44:07.272Z,20.42
2018-04-19T08:46:34.131Z,20.00
2018-04-19T08:49:00.404Z,20.97
2018-04-19T08:51:26.642Z,19.49
2018-04-19T08:53:52.931Z,18.99
2018-04-19T08:56:19.171Z,19.28
2018-04-19T08:58:45.524Z,19.00
2018-04-19T09:01:11.816Z,18.63
2018-04-19T09:03:38.091Z,18.09
2018-04-19T09:06:04.333Z,18.98
2018-04-19T09:08:30.591Z,18.98
2018-04-19T09:10:56.859Z,18.71
2018-04-19T09:13:23.130Z,18.78
2018-04-19T09:15:49.403Z,18.72
2018-04-19T09:18:15.647Z,18.13
2018-04-19T09:20:41.920Z,18.98
2018-04-19T09:23:08.178Z,17.56
2018-04-19T09:25:34.466Z,19.01
2018-04-19T09:28:00.712Z,18.52
2018-04-19T09:30:26.976Z,18.14
2018-04-19T09:32:53.247Z,17.83
2018-04-19T09:35:19.559Z,18.04
2018-04-19T09:37:45.839Z,18.22
2018-04-19T09:40:12.125Z,17.66
2018-04-19T09:42:38.390Z,18.03
2018-04-19T09:45:04.639Z,17.80
2018-04-19T09:47:30.927Z,18.83
2018-04-19T09:49:57.201Z,18.47
2018-04-19T09:52:23.472Z,17.59
2018-04-19T09:54:49.763Z,18.01
2018-04-19T09:57:16.012Z,17.80
2018-04-19T09:59:42.271Z,16.80
2018-04-19T10:02:08.551Z,17.90
2018-04-19T10:04:34.820Z,17.10
2018-04-19T10:07:01.122Z,16.58
2018-04-19T10:09:27.408Z,16.07
2018-04-19T10:11:53.652Z,15.93
2018-04-19T10:14:19.891Z,16.40
2018-04-19T10:16:46.154Z,16.28
2018-04-19T10:19:12.447Z,16.50
2018-04-19T10:21:38.727Z,15.51
2018-04-19T10:24:04.972Z,14.71
2018-04-19T10:26:31.240Z,17.07
2018-04-19T10:28:57.470Z,17.52
2018-04-19T10:31:23.773Z,16.21
2018-04-19T10:33:50.067Z,15.65
2018-04-19T10:36:16.285Z,15.26
2018-04-19T10:38:42.547Z,15.32
2018-04-19T10:41:08.787Z,16.21
2018-04-19T10:43:35.056Z,15.58
2018-04-19T10:46:01.316Z,15.81
2018-04-19T10:48:27.591Z,15.43
2018-04-19T10:50:53.834Z,15.33
2018-04-19T10:53:20.106Z,14.92
2018-04-19T10:55:46.341Z,14.93
2018-04-19T10:58:12.579Z,14.85
2018-04-19T11:00:38.879Z,14.16
2018-04-19T11:03:05.128Z,13.81
2018-04-19T11:05:31.416Z,14.32
2018-04-19T11:07:57.664Z,13.41
2018-04-19T11:10:23.926Z,13.99
2018-04-19T11:12:50.183Z,12.55
2018-04-19T11:15:16.458Z,12.75
2018-04-19T11:17:42.690Z,12.06
2018-04-19T11:20:08.935Z,12.24
2018-04-19T11:22:35.271Z,12.59
2018-04-19T11:25:01.491Z,12.97
2018-04-19T11:27:27.794Z,12.68
2018-04-19T11:29:54.043Z,12.29
2018-04-19T11:32:20.340Z,12.15
2018-04-19T11:34:46.599Z,13.33
2018-04-19T11:37:12.850Z,11.56
2018-04-19T11:39:39.128Z,12.46
2018-04-19T11:42:05.388Z,11.69
2018-04-19T11:44:31.692Z,11.54
2018-04-19T11:46:57.968Z,12.40
2018-04-19T11:49:24.255Z,12.00
2018-04-19T11:51:50.507Z,11.64
2018-04-19T11:54:16.784Z,11.85
2018-04-19T11:56:43.031Z,12.19
2018-04-19T11:59:09.271Z,12.59
2018-04-19T12:01:35.576Z,12.11
2018-04-19T12:04:01.829Z,11.93
2018-04-19T12:06:28.106Z,12.06
2018-04-19T12:08:54.466Z,12.46
2018-04-19T12:11:27.722Z,12.59
2018-04-19T12:13:53.988Z,12.52
2018-04-19T12:16:20.307Z,11.30
2018-04-19T12:18:46.552Z,11.29
2018-04-19T12:21:12.889Z,12.06
2018-04-19T12:23:39.230Z,11.55
2018-04-19T12:26:05.512Z,11.88
2018-04-19T12:28:31.783Z,12.56
2018-04-19T12:30:58.033Z,12.77
2018-04-19T12:33:24.311Z,11.73
2018-04-19T12:35:50.562Z,12.52
2018-04-19T12:38:16.884Z,12.29
2018-04-19T12:40:43.140Z,12.33
2018-04-19T12:43:09.421Z,12.46
2018-04-19T12:45:35.697Z,12.12
2018-04-19T12:48:01.979Z,12.44
2018-04-19T12:50:28.247Z,12.80
2018-04-19T12:52:54.483Z,12.63
2018-04-19T12:55:20.751Z,12.20
2018-04-19T12:57:46.994Z,13.05
2018-04-19T13:00:13.279Z,12.81
2018-04-19T13:02:39.528Z,12.11
2018-04-19T13:05:05.860Z,11.40
2018-04-19T13:07:32.108Z,12.11
2018-04-19T13:09:58.387Z,12.52
2018-04-19T13:12:24.616Z,12.88
2018-04-19T13:14:50.999Z,12.06
2018-04-19T13:17:17.248Z,11.99
2018-04-19T13:19:43.523Z,12.58
2018-04-19T13:22:09.794Z,12.25
2018-04-19T13:24:36.091Z,13.05
2018-04-19T13:27:02.351Z,11.93
2018-04-19T13:29:28.632Z,11.77
2018-04-19T13:31:54.893Z,12.27
2018-04-19T13:34:21.139Z,11.71
2018-04-19T13:36:47.415Z,11.60
2018-04-19T13:39:13.708Z,10.87
2018-04-19T13:41:39.966Z,11.07
2018-04-19T13:44:06.244Z,11.57
2018-04-19T13:46:32.521Z,11.40
2018-04-19T13:48:58.788Z,11.37
2018-04-19T13:51:25.090Z,10.53
2018-04-19T13:53:51.392Z,11.13
2018-04-19T13:56:17.696Z,11.15
2018-04-19T13:58:43.947Z,10.70
2018-04-19T14:01:10.270Z,11.04
2018-04-19T14:03:36.551Z,11.26
2018-04-19T14:06:02.863Z,10.98
2018-04-19T14:08:29.135Z,11.65
2018-04-19T14:10:55.422Z,11.27
2018-04-19T14:13:21.710Z,10.88
2018-04-19T14:15:47.956Z,10.87
2018-04-19T14:18:14.267Z,11.85
2018-04-19T14:20:40.513Z,11.58
2018-04-19T14:23:06.790Z,11.15
2018-04-19T14:25:33.064Z,11.94
2018-04-19T14:27:59.332Z,11.90
2018-04-19T14:30:25.612Z,11.31
2018-04-19T14:32:51.876Z,11.32
2018-04-19T14:35:18.159Z,11.30
2018-04-19T14:37:44.409Z,12.59
2018-04-19T14:40:10.686Z,12.57
2018-04-19T14:42:36.943Z,11.71
2018-04-19T14:45:03.236Z,12.33
2018-04-19T14:47:29.483Z,12.44
2018-04-19T14:49:55.795Z,12.46
2018-04-19T14:52:22.073Z,12.52
2018-04-19T14:54:48.327Z,13.09
2018-04-19T14:57:14.632Z,12.89
2018-04-19T14:59:40.885Z,12.28
2018-04-19T15:02:07.173Z,12.64
2018-04-19T15:04:33.424Z,13.60
2018-04-19T15:06:59.696Z,13.04
2018-04-19T15:09:26.000Z,13.81
2018-04-19T15:11:52.300Z,14.12
2018-04-19T15:14:18.600Z,13.76
2018-04-19T15:16:44.855Z,14.55
2018-04-19T15:19:12.399Z,14.74
2018-04-19T15:21:39.495Z,15.46
2018-04-19T15:24:07.735Z,15.85
2018-04-19T15:26:34.044Z,16.35
2018-04-19T15:29:00.347Z,16.40
2018-04-19T15:31:26.588Z,16.33
2018-04-19T15:33:52.854Z,16.70
2018-04-19T15:36:19.319Z,17.16
2018-04-19T15:38:45.721Z,17.57
2018-04-19T15:41:12.175Z,18.07
2018-04-19T15:43:38.417Z,18.50
2018-04-19T15:46:05.088Z,18.59
2018-04-19T15:48:31.339Z,19.82
2018-04-19T15:50:57.620Z,20.22
2018-04-19T15:53:23.856Z,20.88
2018-04-19T15:55:50.127Z,21.94
2018-04-19T15:58:16.563Z,22.41
2018-04-19T16:00:42.858Z,22.89
2018-04-19T16:03:09.567Z,23.06
2018-04-19T16:05:36.025Z,23.74
2018-04-19T16:08:02.267Z,24.32
2018-04-19T17:13:47.707Z,32.56
2018-04-19T17:16:14.012Z,32.56
2018-04-19T17:18:40.284Z,32.68
2018-04-19T17:21:06.527Z,33.10
2018-04-19T17:23:32.828Z,33.22
2018-04-19T17:25:59.071Z,33.34
2018-04-19T17:28:25.865Z,33.47
2018-04-19T17:30:52.211Z,33.79
2018-04-19T17:33:18.480Z,33.86
2018-04-19T17:35:44.742Z,34.42
2018-04-19T17:38:11.024Z,34.36
2018-04-19T17:40:37.307Z,34.23
2018-04-19T17:43:03.613Z,34.26
2018-04-19T17:45:29.899Z,33.98
2018-04-19T17:47:56.158Z,34.36
2018-04-19T17:50:22.431Z,33.91
2018-04-19T17:52:48.720Z,34.07
2018-04-19T17:55:15.023Z,34.41
2018-04-19T17:57:41.287Z,34.89
2018-04-19T18:00:07.544Z,35.04
2018-04-19T18:02:33.815Z,34.61
2018-04-19T18:05:00.083Z,34.82
2018-04-19T18:07:26.371Z,34.58
2018-04-19T18:09:52.627Z,35.12
2018-04-19T18:12:18.899Z,35.01
2018-04-19T18:14:45.245Z,34.82
2018-04-19T18:17:11.515Z,35.15
2018-04-19T18:19:38.023Z,34.94
2018-04-19T18:22:04.271Z,35.58
2018-04-19T18:24:30.580Z,35.67
2018-04-19T18:26:56.823Z,35.60
2018-04-19T18:29:23.170Z,35.74
2018-04-19T18:31:49.410Z,36.09
2018-04-19T18:34:15.687Z,36.59
2018-04-19T18:36:41.951Z,36.58
2018-04-19T18:39:08.216Z,36.96
2018-04-19T18:41:34.508Z,36.72
2018-04-19T18:44:00.772Z,36.59
2018-04-19T18:46:27.083Z,36.95
2018-04-19T18:48:53.596Z,36.46
2018-04-19T18:51:20.150Z,37.00
2018-04-19T18:53:46.708Z,37.13
2018-04-19T18:56:13.126Z,37.15
2018-04-19T18:58:39.641Z,37.25
2018-04-19T19:01:06.187Z,37.38
2018-04-19T19:03:32.506Z,37.15
2018-04-19T19:05:58.994Z,37.42
2018-04-19T19:08:25.263Z,37.18
2018-04-19T19:10:51.659Z,37.12
2018-04-19T19:13:17.961Z,37.26
2018-04-19T19:29:16.743Z,37.92
2018-04-19T19:31:42.974Z,38.35
2018-04-19T19:34:09.243Z,38.62
2018-04-19T19:36:35.543Z,38.63
2018-04-19T19:39:01.865Z,38.98
2018-04-19T19:41:28.133Z,39.13
2018-04-19T19:43:54.374Z,39.52
2018-04-19T19:46:20.647Z,39.51
2018-04-19T19:48:46.903Z,39.93
2018-04-19T19:51:13.186Z,40.01
2018-04-19T19:53:39.523Z,39.92
2018-04-19T19:56:05.786Z,39.90
2018-04-19T19:58:32.026Z,39.87
2018-04-19T20:00:58.297Z,39.98
2018-04-19T20:03:24.535Z,39.93
2018-04-19T20:05:50.860Z,39.68
2018-04-19T20:08:17.107Z,40.18
2018-04-19T20:10:43.335Z,40.20
2018-04-19T20:13:09.582Z,40.01
2018-04-19T20:15:35.827Z,40.14
2018-04-19T20:18:02.099Z,40.20
2018-04-19T20:20:28.428Z,40.03
2018-04-19T20:22:54.687Z,40.35
2018-04-19T20:25:20.923Z,40.20
2018-04-19T20:27:47.230Z,40.00
2018-04-19T20:30:13.468Z,40.35
2018-04-19T20:32:39.699Z,40.51
2018-04-19T20:35:06.043Z,40.77
2018-04-19T20:37:32.267Z,40.74
2018-04-19T20:39:58.532Z,41.18
2018-04-19T20:42:24.763Z,40.99
2018-04-19T20:44:51.027Z,41.27
2018-04-19T20:47:17.327Z,41.53
2018-04-19T20:49:43.700Z,41.91
2018-04-19T20:52:10.120Z,41.62
2018-04-19T20:54:36.375Z,42.01
2018-04-19T20:57:02.623Z,42.11
2018-04-19T20:59:28.850Z,41.72
2018-04-19T21:01:55.099Z,42.35
2018-04-19T21:04:21.407Z,42.31
2018-04-19T21:06:47.704Z,42.83
2018-04-19T21:09:13.951Z,43.07
2018-04-19T21:11:40.220Z,43.32
2018-04-19T21:14:06.451Z,43.50
2018-04-19T21:16:32.749Z,43.63
2018-04-19T21:18:59.179Z,43.89
2018-04-19T21:21:25.415Z,44.24
2018-04-19T21:23:51.659Z,44.56
2018-04-19T21:26:17.902Z,44.82
2018-04-19T21:28:44.170Z,45.02
2018-04-19T21:31:10.391Z,45.33
2018-04-19T21:33:36.647Z,45.68
2018-04-19T21:36:02.883Z,45.60
2018-04-19T21:38:29.104Z,45.43
2018-04-19T21:40:55.347Z,45.41
2018-04-19T21:43:21.575Z,45.24
2018-04-19T21:45:47.921Z,45.33
2018-04-19T21:48:14.179Z,45.66
2018-04-19T21:50:40.426Z,45.45
2018-04-19T21:53:06.679Z,45.67
2018-04-19T21:55:32.963Z,45.20
2018-04-19T21:57:59.205Z,44.87
2018-04-19T22:00:25.484Z,44.24
2018-04-19T22:02:51.714Z,44.76
2018-04-19T22:05:17.943Z,43.71
2018-04-19T22:07:44.218Z,44.37
2018-04-19T22:10:10.442Z,44.70
2018-04-19T22:12:36.691Z,45.03
2018-04-19T22:15:02.943Z,45.78
2018-04-19T22:17:29.198Z,45.67
2018-04-19T22:19:55.435Z,45.76
2018-04-19T22:22:21.690Z,45.95
2018-04-19T22:24:47.950Z,46.09
2018-04-19T22:27:14.187Z,46.50
2018-04-19T22:29:40.431Z,46.50
2018-04-19T22:32:06.650Z,46.71
2018-04-19T22:34:32.891Z,46.66
2018-04-19T22:36:59.114Z,46.65
2018-04-19T22:39:25.371Z,46.66
2018-04-19T22:41:51.602Z,46.56
2018-04-19T22:44:17.823Z,46.96
2018-04-19T22:46:44.111Z,46.99
2018-04-19T22:49:10.339Z,47.24
2018-04-19T22:51:36.622Z,47.69
2018-04-19T22:54:02.850Z,47.76
2018-04-19T22:56:29.107Z,47.80
2018-04-19T22:58:55.335Z,47.75
2018-04-19T23:01:21.587Z,47.83
2018-04-19T23:03:47.874Z,48.24
2018-04-19T23:06:14.124Z,48.10
2018-04-19T23:08:40.346Z,47.63
2018-04-19T23:11:06.572Z,47.24
2018-04-19T23:13:32.816Z,47.58
2018-04-19T23:15:59.050Z,47.86
2018-04-19T23:18:25.310Z,48.21
2018-04-19T23:20:51.534Z,47.80
2018-04-19T23:23:17.783Z,48.06
2018-04-19T23:25:44.004Z,48.30
2018-04-19T23:28:10.250Z,48.27
2018-04-19T23:30:36.524Z,48.43
2018-04-19T23:33:02.792Z,48.32
2018-04-19T23:35:29.015Z,47.53
2018-04-19T23:37:55.264Z,47.16
2018-04-19T23:40:21.504Z,47.07
2018-04-19T23:42:47.755Z,47.03
2018-04-19T23:45:14.001Z,47.43
2018-04-19T23:47:40.224Z,47.37
2018-04-19T23:50:06.467Z,47.46
2018-04-19T23:52:32.686Z,47.46
2018-04-19T23:54:58.911Z,47.41
2018-04-19T23:57:25.188Z,47.44
2018-04-19T23:59:51.419Z,47.90
